sensor_id;sensor_type;location;lat;lon;timestamp;pressure;altitude;pressure_sealevel;temperature;humidity
60465;BME280;46314;52.392;9.758;2023-01-30T00:00:09;100675.72;;;4.55;76.57
60465;BME280;46314;52.392;9.758;2023-01-30T00:02:36;100656.16;;;4.79;75.96
60465;BME280;46314;52.392;9.758;2023-01-30T00:05:03;100640.78;;;3.91;79.68
60465;BME280;46314;52.392;9.758;2023-01-30T00:07:29;100620.19;;;3.93;79.27
60465;BME280;46314;52.392;9.758;2023-01-30T00:09:56;100612.84;;;4.26;76.89
60465;BME280;46314;52.392;9.758;2023-01-30T00:12:22;100619.53;;;4.35;77.20
60465;BME280;46314;52.392;9.758;2023-01-30T00:14:50;100613.41;;;4.61;76.69
60465;BME280;46314;52.392;9.758;2023-01-30T00:17:16;100621.63;;;4.93;74.89
60465;BME280;46314;52.392;9.758;2023-01-30T00:19:43;100619.06;;;4.81;75.26
60465;BME280;46314;52.392;9.758;2023-01-30T00:22:09;100626.78;;;4.84;75.42
60465;BME280;46314;52.392;9.758;2023-01-30T00:24:35;100638.94;;;4.56;76.40
60465;BME280;46314;52.392;9.758;2023-01-30T00:27:02;100620.34;;;4.68;76.11
60465;BME280;46314;52.392;9.758;2023-01-30T00:29:29;100618.13;;;4.33;78.57
60465;BME280;46314;52.392;9.758;2023-01-30T00:31:56;100622.06;;;4.80;75.80
60465;BME280;46314;52.392;9.758;2023-01-30T00:34:23;100624.69;;;4.59;76.29
60465;BME280;46314;52.392;9.758;2023-01-30T00:36:49;100640.72;;;4.40;76.78
60465;BME280;46314;52.392;9.758;2023-01-30T00:39:32;100620.28;;;4.31;77.43
60465;BME280;46314;52.392;9.758;2023-01-30T00:41:59;100618.59;;;4.57;78.05
60465;BME280;46314;52.392;9.758;2023-01-30T00:44:25;100602.75;;;4.69;76.66
60465;BME280;46314;52.392;9.758;2023-01-30T00:46:51;100594.34;;;4.44;79.48
60465;BME280;46314;52.392;9.758;2023-01-30T00:49:19;100593.06;;;4.57;79.02
60465;BME280;46314;52.392;9.758;2023-01-30T00:51:46;100590.59;;;4.23;80.01
60465;BME280;46314;52.392;9.758;2023-01-30T00:54:12;100588.19;;;4.69;79.48
60465;BME280;46314;52.392;9.758;2023-01-30T00:56:39;100579.53;;;4.87;77.56
60465;BME280;46314;52.392;9.758;2023-01-30T00:59:05;100570.81;;;4.58;79.98
60465;BME280;46314;52.392;9.758;2023-01-30T01:01:32;100577.81;;;4.39;80.13
60465;BME280;46314;52.392;9.758;2023-01-30T01:03:58;100559.34;;;4.66;79.46
60465;BME280;46314;52.392;9.758;2023-01-30T01:06:26;100561.81;;;4.30;83.06
60465;BME280;46314;52.392;9.758;2023-01-30T01:08:53;100560.72;;;4.31;83.46
60465;BME280;46314;52.392;9.758;2023-01-30T01:11:19;100551.19;;;4.82;82.42
60465;BME280;46314;52.392;9.758;2023-01-30T01:13:46;100556.94;;;4.38;83.32
60465;BME280;46314;52.392;9.758;2023-01-30T01:16:12;100543.38;;;4.63;83.49
60465;BME280;46314;52.392;9.758;2023-01-30T01:18:38;100539.34;;;4.01;86.78
60465;BME280;46314;52.392;9.758;2023-01-30T01:21:05;100527.88;;;4.09;87.14
60465;BME280;46314;52.392;9.758;2023-01-30T01:23:33;100510.25;;;4.38;85.45
60465;BME280;46314;52.392;9.758;2023-01-30T01:26:00;100498.44;;;4.00;87.01
60465;BME280;46314;52.392;9.758;2023-01-30T01:28:26;100500.03;;;3.95;89.25
60465;BME280;46314;52.392;9.758;2023-01-30T01:30:53;100492.63;;;4.28;88.88
60465;BME280;46314;52.392;9.758;2023-01-30T01:33:19;100470.84;;;4.16;90.42
60465;BME280;46314;52.392;9.758;2023-01-30T01:35:46;100459.22;;;4.42;89.39
60465;BME280;46314;52.392;9.758;2023-01-30T01:38:12;100445.00;;;4.12;92.40
60465;BME280;46314;52.392;9.758;2023-01-30T01:40:44;100446.38;;;4.10;91.31
60465;BME280;46314;52.392;9.758;2023-01-30T01:43:15;100438.22;;;4.78;89.36
60465;BME280;46314;52.392;9.758;2023-01-30T01:45:43;100443.22;;;4.33;91.11
60465;BME280;46314;52.392;9.758;2023-01-30T01:48:14;100437.16;;;3.89;93.06
60465;BME280;46314;52.392;9.758;2023-01-30T01:50:47;100437.13;;;4.21;92.94
60465;BME280;46314;52.392;9.758;2023-01-30T01:53:18;100427.88;;;4.38;91.74
60465;BME280;46314;52.392;9.758;2023-01-30T01:55:49;100414.03;;;4.17;91.88
60465;BME280;46314;52.392;9.758;2023-01-30T01:58:19;100418.88;;;4.47;91.15
60465;BME280;46314;52.392;9.758;2023-01-30T02:00:49;100426.91;;;4.59;89.91
60465;BME280;46314;52.392;9.758;2023-01-30T02:03:18;100418.00;;;4.36;90.99
60465;BME280;46314;52.392;9.758;2023-01-30T02:05:49;100405.97;;;4.48;90.10
60465;BME280;46314;52.392;9.758;2023-01-30T02:08:19;100401.19;;;4.28;91.40
60465;BME280;46314;52.392;9.758;2023-01-30T02:10:53;100395.34;;;4.67;90.46
60465;BME280;46314;52.392;9.758;2023-01-30T02:13:22;100408.59;;;4.80;89.33
60465;BME280;46314;52.392;9.758;2023-01-30T02:15:49;100406.41;;;4.82;88.08
60465;BME280;46314;52.392;9.758;2023-01-30T02:18:16;100408.34;;;4.92;90.10
60465;BME280;46314;52.392;9.758;2023-01-30T02:21:04;100409.69;;;4.84;88.91
60465;BME280;46314;52.392;9.758;2023-01-30T02:23:55;100402.78;;;4.77;90.05
60465;BME280;46314;52.392;9.758;2023-01-30T02:26:46;100401.50;;;5.10;89.10
60465;BME280;46314;52.392;9.758;2023-01-30T02:29:46;100379.50;;;4.95;88.78
60465;BME280;46314;52.392;9.758;2023-01-30T02:32:29;100380.75;;;4.61;90.05
60465;BME280;46314;52.392;9.758;2023-01-30T02:35:03;100383.78;;;4.60;91.05
60465;BME280;46314;52.392;9.758;2023-01-30T02:37:44;100367.09;;;4.92;90.70
60465;BME280;46314;52.392;9.758;2023-01-30T02:40:22;100378.69;;;5.04;90.55
60465;BME280;46314;52.392;9.758;2023-01-30T02:43:00;100358.81;;;4.77;90.61
60465;BME280;46314;52.392;9.758;2023-01-30T02:45:34;100357.97;;;4.66;91.50
60465;BME280;46314;52.392;9.758;2023-01-30T02:48:05;100355.06;;;5.24;89.40
60465;BME280;46314;52.392;9.758;2023-01-30T02:50:33;100352.88;;;5.52;87.37
60465;BME280;46314;52.392;9.758;2023-01-30T02:53:03;100347.28;;;4.80;89.48
60465;BME280;46314;52.392;9.758;2023-01-30T02:55:30;100336.88;;;4.92;90.50
60465;BME280;46314;52.392;9.758;2023-01-30T02:57:57;100332.28;;;5.44;88.03
60465;BME280;46314;52.392;9.758;2023-01-30T03:00:32;100324.81;;;5.24;89.22
60465;BME280;46314;52.392;9.758;2023-01-30T03:03:28;100324.53;;;4.89;90.68
60465;BME280;46314;52.392;9.758;2023-01-30T03:06:09;100321.25;;;5.34;89.46
60465;BME280;46314;52.392;9.758;2023-01-30T03:08:44;100303.66;;;5.24;89.54
60465;BME280;46314;52.392;9.758;2023-01-30T03:11:14;100309.72;;;5.31;89.51
60465;BME280;46314;52.392;9.758;2023-01-30T03:13:47;100301.69;;;4.73;92.45
60465;BME280;46314;52.392;9.758;2023-01-30T03:16:18;100302.81;;;5.49;89.71
60465;BME280;46314;52.392;9.758;2023-01-30T03:18:48;100304.22;;;5.37;90.63
60465;BME280;46314;52.392;9.758;2023-01-30T03:21:15;100300.91;;;5.40;89.51
60465;BME280;46314;52.392;9.758;2023-01-30T03:23:43;100281.13;;;5.12;92.83
60465;BME280;46314;52.392;9.758;2023-01-30T03:26:13;100285.50;;;4.87;95.17
60465;BME280;46314;52.392;9.758;2023-01-30T03:28:42;100277.53;;;5.11;95.81
60465;BME280;46314;52.392;9.758;2023-01-30T03:31:10;100289.63;;;5.00;97.55
60465;BME280;46314;52.392;9.758;2023-01-30T03:33:36;100272.56;;;5.13;97.01
60465;BME280;46314;52.392;9.758;2023-01-30T03:36:05;100272.59;;;4.98;97.12
60465;BME280;46314;52.392;9.758;2023-01-30T03:38:32;100260.47;;;4.79;98.60
60465;BME280;46314;52.392;9.758;2023-01-30T03:40:59;100266.53;;;5.17;100.00
60465;BME280;46314;52.392;9.758;2023-01-30T03:43:25;100253.91;;;5.16;100.00
60465;BME280;46314;52.392;9.758;2023-01-30T03:45:52;100267.59;;;5.57;96.65
60465;BME280;46314;52.392;9.758;2023-01-30T03:48:18;100252.78;;;5.22;98.46
60465;BME280;46314;52.392;9.758;2023-01-30T03:50:45;100249.75;;;5.08;99.15
60465;BME280;46314;52.392;9.758;2023-01-30T03:53:13;100253.59;;;5.32;99.82
60465;BME280;46314;52.392;9.758;2023-01-30T03:55:39;100249.44;;;5.61;97.50
60465;BME280;46314;52.392;9.758;2023-01-30T03:58:06;100234.94;;;5.19;100.00
60465;BME280;46314;52.392;9.758;2023-01-30T04:00:32;100242.09;;;5.00;100.00
60465;BME280;46314;52.392;9.758;2023-01-30T04:02:58;100237.38;;;5.41;100.00
60465;BME280;46314;52.392;9.758;2023-01-30T04:05:25;100226.69;;;4.99;100.00
60465;BME280;46314;52.392;9.758;2023-01-30T04:07:55;100221.47;;;5.28;100.00
60465;BME280;46314;52.392;9.758;2023-01-30T04:10:23;100231.56;;;5.63;99.18
60465;BME280;46314;52.392;9.758;2023-01-30T04:12:49;100225.84;;;5.34;100.00
60465;BME280;46314;52.392;9.758;2023-01-30T04:15:16;100215.84;;;5.74;98.52
60465;BME280;46314;52.392;9.758;2023-01-30T04:17:43;100211.13;;;5.85;97.97
60465;BME280;46314;52.392;9.758;2023-01-30T04:20:10;100214.81;;;5.49;99.20
60465;BME280;46314;52.392;9.758;2023-01-30T04:22:36;100215.66;;;5.35;100.00
60465;BME280;46314;52.392;9.758;2023-01-30T04:25:03;100210.72;;;5.31;100.00
60465;BME280;46314;52.392;9.758;2023-01-30T04:27:31;100198.88;;;5.36;100.00
60465;BME280;46314;52.392;9.758;2023-01-30T04:29:57;100192.66;;;5.91;98.70
60465;BME280;46314;52.392;9.758;2023-01-30T04:32:24;100191.91;;;5.69;100.00
60465;BME280;46314;52.392;9.758;2023-01-30T04:34:51;100193.28;;;5.77;100.00
60465;BME280;46314;52.392;9.758;2023-01-30T04:37:17;100199.34;;;5.69;99.48
60465;BME280;46314;52.392;9.758;2023-01-30T04:39:44;100181.09;;;5.99;98.32
60465;BME280;46314;52.392;9.758;2023-01-30T04:42:10;100196.53;;;5.90;98.30
60465;BME280;46314;52.392;9.758;2023-01-30T04:44:38;100193.25;;;5.82;97.78
60465;BME280;46314;52.392;9.758;2023-01-30T04:47:04;100198.19;;;5.85;99.56
60465;BME280;46314;52.392;9.758;2023-01-30T04:49:31;100187.25;;;5.65;100.00
60465;BME280;46314;52.392;9.758;2023-01-30T04:51:57;100179.25;;;5.79;99.16
60465;BME280;46314;52.392;9.758;2023-01-30T04:54:24;100183.06;;;5.83;99.60
60465;BME280;46314;52.392;9.758;2023-01-30T04:56:50;100176.56;;;5.53;100.00
60465;BME280;46314;52.392;9.758;2023-01-30T04:59:17;100175.03;;;6.02;99.08
60465;BME280;46314;52.392;9.758;2023-01-30T05:01:45;100172.34;;;5.76;99.29
60465;BME280;46314;52.392;9.758;2023-01-30T05:04:11;100177.19;;;6.05;99.36
60465;BME280;46314;52.392;9.758;2023-01-30T05:06:38;100171.16;;;5.93;100.00
60465;BME280;46314;52.392;9.758;2023-01-30T05:09:04;100164.41;;;5.64;100.00
60465;BME280;46314;52.392;9.758;2023-01-30T05:11:31;100160.88;;;6.19;99.60
60465;BME280;46314;52.392;9.758;2023-01-30T05:13:58;100153.84;;;5.97;100.00
60465;BME280;46314;52.392;9.758;2023-01-30T05:16:25;100158.09;;;5.64;100.00
60465;BME280;46314;52.392;9.758;2023-01-30T05:18:53;100168.28;;;6.29;99.44
60465;BME280;46314;52.392;9.758;2023-01-30T05:21:21;100151.84;;;6.08;100.00
60465;BME280;46314;52.392;9.758;2023-01-30T05:23:48;100153.06;;;5.81;100.00
60465;BME280;46314;52.392;9.758;2023-01-30T05:26:16;100144.91;;;6.21;99.45
60465;BME280;46314;52.392;9.758;2023-01-30T05:28:42;100155.81;;;5.81;100.00
60465;BME280;46314;52.392;9.758;2023-01-30T05:31:11;100153.56;;;5.94;100.00
60465;BME280;46314;52.392;9.758;2023-01-30T05:33:38;100160.22;;;5.87;100.00
60465;BME280;46314;52.392;9.758;2023-01-30T05:36:07;100172.59;;;5.85;100.00
60465;BME280;46314;52.392;9.758;2023-01-30T05:38:38;100170.53;;;5.51;100.00
60465;BME280;46314;52.392;9.758;2023-01-30T05:41:06;100170.16;;;5.73;100.00
60465;BME280;46314;52.392;9.758;2023-01-30T05:43:34;100173.94;;;5.98;100.00
60465;BME280;46314;52.392;9.758;2023-01-30T05:46:04;100181.09;;;5.88;100.00
60465;BME280;46314;52.392;9.758;2023-01-30T05:48:32;100176.22;;;5.75;100.00
60465;BME280;46314;52.392;9.758;2023-01-30T05:50:59;100177.78;;;6.02;100.00
60465;BME280;46314;52.392;9.758;2023-01-30T05:53:28;100165.50;;;5.68;100.00
60465;BME280;46314;52.392;9.758;2023-01-30T05:55:55;100172.31;;;5.97;100.00
60465;BME280;46314;52.392;9.758;2023-01-30T05:58:22;100171.41;;;6.06;100.00
60465;BME280;46314;52.392;9.758;2023-01-30T06:00:50;100171.25;;;5.82;100.00
60465;BME280;46314;52.392;9.758;2023-01-30T06:03:16;100155.03;;;5.76;100.00
60465;BME280;46314;52.392;9.758;2023-01-30T06:05:43;100150.22;;;6.07;100.00
60465;BME280;46314;52.392;9.758;2023-01-30T06:08:09;100145.97;;;5.75;100.00
60465;BME280;46314;52.392;9.758;2023-01-30T06:10:37;100152.50;;;5.90;100.00
60465;BME280;46314;52.392;9.758;2023-01-30T06:13:04;100153.09;;;5.71;100.00
60465;BME280;46314;52.392;9.758;2023-01-30T06:15:30;100154.06;;;6.06;100.00
60465;BME280;46314;52.392;9.758;2023-01-30T06:17:57;100151.84;;;6.08;100.00
60465;BME280;46314;52.392;9.758;2023-01-30T06:20:24;100151.31;;;6.06;99.47
60465;BME280;46314;52.392;9.758;2023-01-30T06:22:50;100149.88;;;6.14;99.25
60465;BME280;46314;52.392;9.758;2023-01-30T06:25:17;100153.72;;;5.63;100.00
60465;BME280;46314;52.392;9.758;2023-01-30T06:27:45;100164.84;;;5.97;100.00
60465;BME280;46314;52.392;9.758;2023-01-30T06:30:12;100164.75;;;6.18;99.77
60465;BME280;46314;52.392;9.758;2023-01-30T06:32:39;100162.28;;;6.16;99.55
60465;BME280;46314;52.392;9.758;2023-01-30T06:35:06;100160.59;;;6.20;99.65
60465;BME280;46314;52.392;9.758;2023-01-30T06:37:33;100182.25;;;6.37;98.17
60465;BME280;46314;52.392;9.758;2023-01-30T06:39:59;100183.38;;;6.31;97.74
60465;BME280;46314;52.392;9.758;2023-01-30T06:42:26;100185.88;;;6.28;97.49
60465;BME280;46314;52.392;9.758;2023-01-30T06:44:53;100185.56;;;6.34;96.87
60465;BME280;46314;52.392;9.758;2023-01-30T06:47:20;100185.84;;;6.33;96.56
60465;BME280;46314;52.392;9.758;2023-01-30T06:49:46;100197.38;;;6.40;96.99
60465;BME280;46314;52.392;9.758;2023-01-30T06:52:13;100196.34;;;6.31;98.18
60465;BME280;46314;52.392;9.758;2023-01-30T06:54:39;100189.56;;;6.57;97.05
60465;BME280;46314;52.392;9.758;2023-01-30T06:57:05;100186.44;;;6.69;96.29
60465;BME280;46314;52.392;9.758;2023-01-30T06:59:32;100184.66;;;6.49;96.44
60465;BME280;46314;52.392;9.758;2023-01-30T07:02:00;100186.91;;;6.42;96.49
60465;BME280;46314;52.392;9.758;2023-01-30T07:04:26;100192.56;;;6.16;96.64
60465;BME280;46314;52.392;9.758;2023-01-30T07:06:53;100196.44;;;6.10;97.16
60465;BME280;46314;52.392;9.758;2023-01-30T07:09:19;100196.13;;;6.22;95.27
60465;BME280;46314;52.392;9.758;2023-01-30T07:11:46;100191.94;;;6.30;94.04
60465;BME280;46314;52.392;9.758;2023-01-30T07:14:12;100200.25;;;6.24;94.72
60465;BME280;46314;52.392;9.758;2023-01-30T07:16:38;100207.81;;;6.48;93.37
60465;BME280;46314;52.392;9.758;2023-01-30T07:19:06;100206.25;;;6.37;93.81
60465;BME280;46314;52.392;9.758;2023-01-30T07:21:33;100203.34;;;6.13;94.84
60465;BME280;46314;52.392;9.758;2023-01-30T07:23:59;100206.00;;;6.28;94.47
60465;BME280;46314;52.392;9.758;2023-01-30T07:26:26;100195.84;;;6.18;94.11
60465;BME280;46314;52.392;9.758;2023-01-30T07:28:52;100203.28;;;6.23;92.80
60465;BME280;46314;52.392;9.758;2023-01-30T07:31:18;100206.53;;;6.35;91.32
60465;BME280;46314;52.392;9.758;2023-01-30T07:33:45;100199.56;;;6.43;90.27
60465;BME280;46314;52.392;9.758;2023-01-30T07:36:13;100196.28;;;6.41;90.40
60465;BME280;46314;52.392;9.758;2023-01-30T07:38:39;100206.16;;;6.47;90.07
60465;BME280;46314;52.392;9.758;2023-01-30T07:41:06;100183.75;;;6.59;89.33
60465;BME280;46314;52.392;9.758;2023-01-30T07:43:32;100186.63;;;6.43;89.19
60465;BME280;46314;52.392;9.758;2023-01-30T07:45:59;100184.00;;;6.23;89.22
60465;BME280;46314;52.392;9.758;2023-01-30T07:48:25;100190.28;;;6.34;89.09
60465;BME280;46314;52.392;9.758;2023-01-30T07:50:54;100192.94;;;6.49;86.86
60465;BME280;46314;52.392;9.758;2023-01-30T07:53:22;100190.41;;;6.58;86.54
60465;BME280;46314;52.392;9.758;2023-01-30T07:56:11;100197.31;;;5.95;87.79
60465;BME280;46314;52.392;9.758;2023-01-30T07:58:37;100192.56;;;6.16;84.95
60465;BME280;46314;52.392;9.758;2023-01-30T08:01:04;100203.25;;;6.28;84.48
60465;BME280;46314;52.392;9.758;2023-01-30T08:03:31;100200.84;;;6.56;83.12
60465;BME280;46314;52.392;9.758;2023-01-30T08:05:57;100192.16;;;6.78;82.74
60465;BME280;46314;52.392;9.758;2023-01-30T08:08:25;100206.53;;;6.30;83.23
60465;BME280;46314;52.392;9.758;2023-01-30T08:10:52;100213.69;;;6.76;82.31
60465;BME280;46314;52.392;9.758;2023-01-30T08:13:18;100204.97;;;6.63;82.73
60465;BME280;46314;52.392;9.758;2023-01-30T08:15:45;100220.38;;;6.64;81.81
60465;BME280;46314;52.392;9.758;2023-01-30T08:18:11;100218.97;;;6.67;81.74
60465;BME280;46314;52.392;9.758;2023-01-30T08:20:37;100233.38;;;6.59;81.78
60465;BME280;46314;52.392;9.758;2023-01-30T08:23:04;100226.34;;;6.77;81.44
60465;BME280;46314;52.392;9.758;2023-01-30T08:25:32;100237.28;;;6.87;81.26
60465;BME280;46314;52.392;9.758;2023-01-30T08:27:59;100227.16;;;6.38;82.74
60465;BME280;46314;52.392;9.758;2023-01-30T08:30:25;100235.59;;;6.57;82.24
60465;BME280;46314;52.392;9.758;2023-01-30T08:32:52;100233.69;;;6.47;82.67
60465;BME280;46314;52.392;9.758;2023-01-30T08:35:19;100245.84;;;6.46;82.11
60465;BME280;46314;52.392;9.758;2023-01-30T08:37:45;100222.50;;;6.78;80.84
60465;BME280;46314;52.392;9.758;2023-01-30T08:40:12;100234.53;;;6.48;82.22
60465;BME280;46314;52.392;9.758;2023-01-30T08:42:42;100233.47;;;6.83;79.89
60465;BME280;46314;52.392;9.758;2023-01-30T08:45:10;100245.16;;;6.20;82.85
60465;BME280;46314;52.392;9.758;2023-01-30T08:47:36;100227.38;;;6.91;79.94
60465;BME280;46314;52.392;9.758;2023-01-30T08:50:04;100236.59;;;6.71;80.68
60465;BME280;46314;52.392;9.758;2023-01-30T08:52:31;100224.31;;;6.88;79.76
60465;BME280;46314;52.392;9.758;2023-01-30T08:54:57;100232.53;;;6.98;80.43
60465;BME280;46314;52.392;9.758;2023-01-30T08:57:23;100225.94;;;6.94;80.54
60465;BME280;46314;52.392;9.758;2023-01-30T08:59:51;100235.63;;;6.91;81.30
60465;BME280;46314;52.392;9.758;2023-01-30T09:02:18;100247.41;;;7.02;80.42
60465;BME280;46314;52.392;9.758;2023-01-30T09:04:44;100234.47;;;6.97;80.81
60465;BME280;46314;52.392;9.758;2023-01-30T09:07:11;100232.28;;;6.94;80.65
60465;BME280;46314;52.392;9.758;2023-01-30T09:09:37;100238.22;;;7.12;80.43
60465;BME280;46314;52.392;9.758;2023-01-30T09:12:04;100243.81;;;7.01;80.38
60465;BME280;46314;52.392;9.758;2023-01-30T09:14:30;100242.59;;;7.18;79.73
60465;BME280;46314;52.392;9.758;2023-01-30T09:16:58;100233.03;;;7.34;79.07
60465;BME280;46314;52.392;9.758;2023-01-30T09:19:26;100235.13;;;7.48;78.18
60465;BME280;46314;52.392;9.758;2023-01-30T09:21:53;100242.63;;;7.13;78.29
60465;BME280;46314;52.392;9.758;2023-01-30T09:24:21;100236.31;;;6.73;78.79
60465;BME280;46314;52.392;9.758;2023-01-30T09:26:47;100232.41;;;6.79;81.28
60465;BME280;46314;52.392;9.758;2023-01-30T09:29:14;100237.25;;;6.92;81.83
60465;BME280;46314;52.392;9.758;2023-01-30T09:31:40;100231.47;;;7.28;80.04
60465;BME280;46314;52.392;9.758;2023-01-30T09:34:08;100238.97;;;7.17;79.34
60465;BME280;46314;52.392;9.758;2023-01-30T09:36:35;100232.13;;;7.15;79.83
60465;BME280;46314;52.392;9.758;2023-01-30T09:39:01;100226.66;;;7.10;79.43
60465;BME280;46314;52.392;9.758;2023-01-30T09:41:45;100230.47;;;7.14;79.42
60465;BME280;46314;52.392;9.758;2023-01-30T09:44:30;100235.56;;;6.96;78.57
60465;BME280;46314;52.392;9.758;2023-01-30T09:47:03;100234.84;;;7.20;77.72
60465;BME280;46314;52.392;9.758;2023-01-30T09:49:44;100239.38;;;7.06;78.10
60465;BME280;46314;52.392;9.758;2023-01-30T09:52:25;100242.13;;;7.06;77.72
60465;BME280;46314;52.392;9.758;2023-01-30T09:54:58;100231.47;;;7.28;76.96
60465;BME280;46314;52.392;9.758;2023-01-30T09:57:25;100223.81;;;7.20;76.44
60465;BME280;46314;52.392;9.758;2023-01-30T09:59:55;100232.97;;;7.10;76.80
60465;BME280;46314;52.392;9.758;2023-01-30T10:02:34;100232.69;;;7.12;76.56
60465;BME280;46314;52.392;9.758;2023-01-30T10:05:04;100235.00;;;6.65;77.87
60465;BME280;46314;52.392;9.758;2023-01-30T10:07:41;100236.84;;;7.09;76.71
60465;BME280;46314;52.392;9.758;2023-01-30T10:10:16;100224.75;;;7.05;76.62
60465;BME280;46314;52.392;9.758;2023-01-30T10:12:53;100248.41;;;7.11;76.90
60465;BME280;46314;52.392;9.758;2023-01-30T10:15:36;100238.28;;;7.01;77.43
60465;BME280;46314;52.392;9.758;2023-01-30T10:18:37;100233.09;;;7.29;76.11
60465;BME280;46314;52.392;9.758;2023-01-30T10:21:18;100229.47;;;7.58;74.97
60465;BME280;46314;52.392;9.758;2023-01-30T10:23:59;100224.84;;;7.24;75.58
60465;BME280;46314;52.392;9.758;2023-01-30T10:26:32;100227.00;;;7.32;74.24
60465;BME280;46314;52.392;9.758;2023-01-30T10:29:01;100217.06;;;7.61;74.16
60465;BME280;46314;52.392;9.758;2023-01-30T10:31:36;100219.53;;;7.62;73.60
60465;BME280;46314;52.392;9.758;2023-01-30T10:34:10;100218.81;;;7.75;72.62
60465;BME280;46314;52.392;9.758;2023-01-30T10:36:42;100228.16;;;7.55;74.15
60465;BME280;46314;52.392;9.758;2023-01-30T10:39:16;100210.28;;;7.18;75.17
60465;BME280;46314;52.392;9.758;2023-01-30T10:41:52;100204.97;;;7.27;74.55
60465;BME280;46314;52.392;9.758;2023-01-30T10:44:22;100190.75;;;7.44;74.66
60465;BME280;46314;52.392;9.758;2023-01-30T10:47:10;100188.31;;;7.86;73.55
60465;BME280;46314;52.392;9.758;2023-01-30T10:49:44;100186.97;;;7.59;73.59
60465;BME280;46314;52.392;9.758;2023-01-30T10:52:21;100189.28;;;7.23;74.67
60465;BME280;46314;52.392;9.758;2023-01-30T10:54:57;100191.31;;;7.41;73.62
60465;BME280;46314;52.392;9.758;2023-01-30T10:57:33;100171.13;;;7.70;72.80
60465;BME280;46314;52.392;9.758;2023-01-30T11:00:05;100188.78;;;7.93;72.26
60465;BME280;46314;52.392;9.758;2023-01-30T11:02:39;100211.63;;;7.50;71.72
60465;BME280;46314;52.392;9.758;2023-01-30T11:05:14;100198.41;;;7.23;73.14
60465;BME280;46314;52.392;9.758;2023-01-30T11:07:44;100216.91;;;7.47;73.75
60465;BME280;46314;52.392;9.758;2023-01-30T11:10:15;100210.94;;;7.39;78.19
60465;BME280;46314;52.392;9.758;2023-01-30T11:12:42;100204.22;;;7.46;79.28
60465;BME280;46314;52.392;9.758;2023-01-30T11:15:09;100209.44;;;7.23;79.51
60465;BME280;46314;52.392;9.758;2023-01-30T11:17:38;100210.19;;;6.65;80.86
60465;BME280;46314;52.392;9.758;2023-01-30T11:20:12;100192.13;;;6.83;81.19
60465;BME280;46314;52.392;9.758;2023-01-30T11:22:47;100183.41;;;7.00;80.67
60465;BME280;46314;52.392;9.758;2023-01-30T11:25:15;100201.69;;;7.25;81.18
60465;BME280;46314;52.392;9.758;2023-01-30T11:27:51;100200.84;;;6.56;84.33
60465;BME280;46314;52.392;9.758;2023-01-30T11:30:19;100203.72;;;6.80;85.00
60465;BME280;46314;52.392;9.758;2023-01-30T11:32:48;100211.78;;;6.32;87.26
60465;BME280;46314;52.392;9.758;2023-01-30T11:35:26;100189.97;;;6.75;84.97
60465;BME280;46314;52.392;9.758;2023-01-30T11:38:10;100183.78;;;7.23;82.87
60465;BME280;46314;52.392;9.758;2023-01-30T11:40:37;100184.81;;;7.32;83.26
60465;BME280;46314;52.392;9.758;2023-01-30T11:43:10;100169.47;;;6.91;83.24
60465;BME280;46314;52.392;9.758;2023-01-30T11:45:39;100178.06;;;7.14;83.53
60465;BME280;46314;52.392;9.758;2023-01-30T11:48:14;100168.13;;;7.18;84.78
60465;BME280;46314;52.392;9.758;2023-01-30T11:51:04;100169.72;;;7.72;82.31
60465;BME280;46314;52.392;9.758;2023-01-30T11:53:36;100165.44;;;7.08;83.43
60465;BME280;46314;52.392;9.758;2023-01-30T11:56:07;100172.69;;;7.28;83.25
60465;BME280;46314;52.392;9.758;2023-01-30T11:58:38;100168.81;;;7.29;82.71
60465;BME280;46314;52.392;9.758;2023-01-30T12:01:08;100157.75;;;7.05;83.30
60465;BME280;46314;52.392;9.758;2023-01-30T12:03:42;100168.53;;;7.01;82.15
60465;BME280;46314;52.392;9.758;2023-01-30T12:06:10;100155.94;;;6.95;83.19
60465;BME280;46314;52.392;9.758;2023-01-30T12:08:41;100163.94;;;6.57;85.09
60465;BME280;46314;52.392;9.758;2023-01-30T12:11:24;100199.25;;;6.50;87.20
60465;BME280;46314;52.392;9.758;2023-01-30T12:13:52;100211.31;;;6.14;89.59
60465;BME280;46314;52.392;9.758;2023-01-30T12:16:21;100217.78;;;5.68;90.63
60465;BME280;46314;52.392;9.758;2023-01-30T12:18:54;100190.59;;;5.57;93.54
60465;BME280;46314;52.392;9.758;2023-01-30T12:21:31;100213.75;;;5.30;97.25
60465;BME280;46314;52.392;9.758;2023-01-30T12:24:19;100216.59;;;5.90;93.17
60465;BME280;46314;52.392;9.758;2023-01-30T12:26:51;100202.94;;;5.59;94.56
60465;BME280;46314;52.392;9.758;2023-01-30T12:29:24;100198.19;;;5.85;94.26
60465;BME280;46314;52.392;9.758;2023-01-30T12:32:01;100202.81;;;5.95;93.05
60465;BME280;46314;52.392;9.758;2023-01-30T12:34:30;100217.56;;;5.44;96.42
60465;BME280;46314;52.392;9.758;2023-01-30T12:37:07;100222.06;;;6.16;94.27
60465;BME280;46314;52.392;9.758;2023-01-30T12:39:56;100206.06;;;6.18;95.23
60465;BME280;46314;52.392;9.758;2023-01-30T12:42:27;100208.63;;;6.49;92.78
60465;BME280;46314;52.392;9.758;2023-01-30T12:45:05;100195.09;;;6.52;92.59
60465;BME280;46314;52.392;9.758;2023-01-30T12:47:51;100198.78;;;6.37;92.65
60465;BME280;46314;52.392;9.758;2023-01-30T12:50:29;100200.25;;;5.49;97.49
60465;BME280;46314;52.392;9.758;2023-01-30T12:53:12;100203.09;;;5.94;93.87
60465;BME280;46314;52.392;9.758;2023-01-30T12:55:53;100206.94;;;5.93;93.97
60465;BME280;46314;52.392;9.758;2023-01-30T12:58:23;100200.44;;;5.73;93.36
60465;BME280;46314;52.392;9.758;2023-01-30T13:01:12;100216.47;;;5.45;92.75
60465;BME280;46314;52.392;9.758;2023-01-30T13:03:43;100224.31;;;6.03;90.65
60465;BME280;46314;52.392;9.758;2023-01-30T13:06:25;100235.56;;;6.12;89.35
60465;BME280;46314;52.392;9.758;2023-01-30T13:09:08;100228.94;;;6.08;90.01
60465;BME280;46314;52.392;9.758;2023-01-30T13:11:50;100220.44;;;5.99;89.74
60465;BME280;46314;52.392;9.758;2023-01-30T13:14:25;100220.19;;;5.91;90.71